createdAt,value
2018-08-27T00:02:25.135Z,68.60
2018-08-27T00:04:53.260Z,68.50
2018-08-27T00:07:21.404Z,70.60
2018-08-27T00:09:49.547Z,71.10
2018-08-27T00:12:17.685Z,74.40
2018-08-27T00:14:45.791Z,73.10
2018-08-27T00:17:13.943Z,73.00
2018-08-27T00:19:42.056Z,74.20
2018-08-27T00:22:10.200Z,73.70
2018-08-27T00:24:38.327Z,76.10
2018-08-27T00:27:06.464Z,78.80
2018-08-27T00:29:35.309Z,78.10
2018-08-27T00:32:03.524Z,78.70
2018-08-27T00:34:31.807Z,79.00
2018-08-27T00:36:59.915Z,80.50
2018-08-27T00:39:28.050Z,80.00
2018-08-27T00:41:56.175Z,81.70
2018-08-27T00:44:24.331Z,80.10
2018-08-27T00:46:52.457Z,80.00
2018-08-27T00:49:20.573Z,80.90
2018-08-27T00:51:48.720Z,79.80
2018-08-27T00:54:16.876Z,80.20
2018-08-27T00:56:45.068Z,78.90
2018-08-27T00:59:13.179Z,77.90
2018-08-27T01:01:41.325Z,78.10
2018-08-27T01:04:09.479Z,78.10
2018-08-27T01:06:37.667Z,76.90
2018-08-27T01:09:07.082Z,76.40
2018-08-27T01:11:35.195Z,76.00
2018-08-27T01:14:04.314Z,76.10
2018-08-27T01:16:32.862Z,77.20
2018-08-27T01:19:01.131Z,75.50
2018-08-27T01:21:29.243Z,74.30
2018-08-27T01:23:57.967Z,74.00
2018-08-27T01:26:26.111Z,72.00
2018-08-27T01:28:54.266Z,71.10
2018-08-27T01:31:22.509Z,70.70
2018-08-27T01:33:50.750Z,70.70
2018-08-27T01:36:18.958Z,70.80
2018-08-27T01:38:47.122Z,71.00
2018-08-27T01:41:15.844Z,72.70
2018-08-27T01:43:43.987Z,73.20
2018-08-27T01:46:12.135Z,73.10
2018-08-27T01:48:40.388Z,71.70
2018-08-27T01:51:08.511Z,71.60
2018-08-27T01:53:36.679Z,71.00
2018-08-27T01:56:04.944Z,73.10
2018-08-27T01:58:34.496Z,72.30
2018-08-27T02:01:02.635Z,72.90
2018-08-27T02:03:31.019Z,73.60
2018-08-27T02:05:59.714Z,73.40
2018-08-27T02:08:28.352Z,73.30
2018-08-27T02:10:56.468Z,74.70
2018-08-27T02:13:24.611Z,74.50
2018-08-27T02:15:52.741Z,76.20
2018-08-27T02:18:20.864Z,76.80
2018-08-27T02:20:49.012Z,76.30
2018-08-27T02:23:17.135Z,77.30
2018-08-27T02:25:45.363Z,77.60
2018-08-27T02:28:13.697Z,79.30
2018-08-27T02:30:42.064Z,79.00
2018-08-27T02:33:10.283Z,79.00
2018-08-27T02:35:38.379Z,80.40
2018-08-27T02:38:06.647Z,81.00
2018-08-27T02:40:35.018Z,81.30
2018-08-27T02:43:03.153Z,81.60
2018-08-27T02:45:32.171Z,83.40
2018-08-27T02:48:00.628Z,85.00
2018-08-27T02:50:28.824Z,85.50
2018-08-27T02:52:57.004Z,86.40
2018-08-27T02:55:25.104Z,87.70
2018-08-27T02:57:53.225Z,88.80
2018-08-27T03:00:21.351Z,90.10
2018-08-27T03:02:49.485Z,90.70
2018-08-27T03:05:17.711Z,90.90
2018-08-27T03:07:46.042Z,91.70
2018-08-27T03:10:14.187Z,91.60
2018-08-27T03:12:42.358Z,92.00
2018-08-27T03:15:10.464Z,92.30
2018-08-27T03:17:38.828Z,92.00
2018-08-27T03:20:07.307Z,92.60
2018-08-27T03:22:35.405Z,92.60
2018-08-27T03:25:03.729Z,92.90
2018-08-27T03:27:31.673Z,93.20
2018-08-27T03:29:59.856Z,93.10
2018-08-27T03:32:27.980Z,92.00
2018-08-27T03:34:56.112Z,92.10
2018-08-27T03:37:24.224Z,92.20
2018-08-27T03:39:52.372Z,92.10
2018-08-27T03:42:20.524Z,92.10
2018-08-27T03:44:48.632Z,92.50
2018-08-27T03:47:16.736Z,92.80
2018-08-27T03:49:44.859Z,92.90
2018-08-27T03:52:13.023Z,92.30
2018-08-27T03:54:41.209Z,92.70
2018-08-27T03:57:09.366Z,92.60
2018-08-27T03:59:37.496Z,92.40
2018-08-27T04:02:05.619Z,92.10
2018-08-27T04:04:33.914Z,92.60
2018-08-27T04:07:02.046Z,92.90
2018-08-27T04:09:30.298Z,93.10
2018-08-27T04:11:58.439Z,94.30
2018-08-27T04:14:26.629Z,94.60
2018-08-27T04:16:54.733Z,94.80
2018-08-27T04:19:22.893Z,94.30
2018-08-27T04:21:51.003Z,94.20
2018-08-27T04:24:19.345Z,94.60
2018-08-27T04:26:47.467Z,95.40
2018-08-27T04:29:15.577Z,95.70
2018-08-27T04:31:43.703Z,97.20
2018-08-27T04:34:11.923Z,98.00
2018-08-27T04:36:39.999Z,97.60
2018-08-27T04:39:09.304Z,97.90
2018-08-27T04:41:37.451Z,98.40
2018-08-27T04:44:05.570Z,98.60
2018-08-27T04:46:34.435Z,98.10
2018-08-27T04:49:02.932Z,97.80
2018-08-27T04:51:31.041Z,97.50
2018-08-27T04:53:59.145Z,97.30
2018-08-27T04:56:27.259Z,96.90
2018-08-27T04:58:59.633Z,96.90
2018-08-27T05:01:27.752Z,96.90
2018-08-27T05:03:55.865Z,96.40
2018-08-27T05:06:24.021Z,96.30
2018-08-27T05:08:52.127Z,96.40
2018-08-27T05:11:21.243Z,96.60
2018-08-27T05:13:49.404Z,96.70
2018-08-27T05:16:17.511Z,97.10
2018-08-27T05:18:46.590Z,97.20
2018-08-27T05:21:14.823Z,97.50
2018-08-27T05:23:42.960Z,97.30
2018-08-27T05:26:11.084Z,97.30
2018-08-27T05:28:39.252Z,96.80
2018-08-27T05:31:07.364Z,96.50
2018-08-27T05:33:35.578Z,96.60
2018-08-27T05:36:03.702Z,96.20
2018-08-27T05:38:31.895Z,96.40
2018-08-27T05:40:59.980Z,96.20
2018-08-27T05:43:28.109Z,95.70
2018-08-27T05:45:56.219Z,96.40
2018-08-27T05:48:24.335Z,96.50
2018-08-27T05:50:52.523Z,96.50
2018-08-27T05:53:20.663Z,96.80
2018-08-27T05:55:48.837Z,97.40
2018-08-27T05:58:16.932Z,97.10
2018-08-27T06:00:45.115Z,96.40
2018-08-27T06:03:13.247Z,97.30
2018-08-27T06:05:41.394Z,97.40
2018-08-27T06:08:09.644Z,97.50
2018-08-27T06:10:37.813Z,98.00
2018-08-27T06:13:07.019Z,97.10
2018-08-27T06:15:35.496Z,97.30
2018-08-27T06:18:03.636Z,97.70
2018-08-27T06:20:31.939Z,97.90
2018-08-27T06:23:00.087Z,98.20
2018-08-27T06:25:28.454Z,98.20
2018-08-27T06:27:56.855Z,98.10
2018-08-27T06:30:25.044Z,98.30
2018-08-27T06:32:53.196Z,98.30
2018-08-27T06:35:21.359Z,98.50
2018-08-27T06:37:49.552Z,98.60
2018-08-27T06:40:17.710Z,98.10
2018-08-27T06:42:45.837Z,98.10
2018-08-27T06:45:13.980Z,98.10
2018-08-27T06:47:42.261Z,98.00
2018-08-27T06:50:10.432Z,98.30
2018-08-27T06:52:38.618Z,99.10
2018-08-27T06:55:06.794Z,98.30
2018-08-27T06:57:35.838Z,98.10
2018-08-27T07:00:04.243Z,97.90
2018-08-27T07:02:32.563Z,98.30
2018-08-27T07:05:04.280Z,98.00
2018-08-27T07:07:32.501Z,98.10
2018-08-27T07:10:00.603Z,98.00
2018-08-27T07:12:29.127Z,98.50
2018-08-27T07:14:57.354Z,98.90
2018-08-27T07:17:25.484Z,98.50
2018-08-27T07:19:53.668Z,98.20
2018-08-27T07:22:21.792Z,98.20
2018-08-27T07:24:49.928Z,98.80
2018-08-27T07:27:18.127Z,98.50
2018-08-27T07:29:46.224Z,98.90
2018-08-27T07:32:14.915Z,98.80
2018-08-27T07:34:43.043Z,99.30
2018-08-27T07:37:11.284Z,99.40
2018-08-27T07:39:39.462Z,98.90
2018-08-27T07:42:07.789Z,99.30
2018-08-27T07:44:35.930Z,99.90
2018-08-27T07:47:04.088Z,99.90
2018-08-27T07:49:32.208Z,99.90
2018-08-27T07:52:00.328Z,99.60
2018-08-27T07:54:28.646Z,99.30
2018-08-27T07:56:56.774Z,99.40
2018-08-27T07:59:24.890Z,99.30
2018-08-27T08:01:53.090Z,99.20
2018-08-27T08:04:21.207Z,99.30
2018-08-27T08:06:49.329Z,99.10
2018-08-27T08:09:17.535Z,98.90
2018-08-27T08:11:45.647Z,98.60
2018-08-27T08:14:13.775Z,98.20
2018-08-27T08:16:41.893Z,98.40
2018-08-27T08:19:09.999Z,99.20
2018-08-27T08:21:38.112Z,99.40
2018-08-27T08:24:06.207Z,98.90
2018-08-27T08:26:34.331Z,99.70
2018-08-27T08:29:02.430Z,99.10
2018-08-27T08:31:30.564Z,99.60
2018-08-27T08:33:58.667Z,98.80
2018-08-27T08:36:26.800Z,97.70
2018-08-27T08:39:58.521Z,97.60
2018-08-27T08:42:26.576Z,97.50
2018-08-27T08:44:54.667Z,98.00
2018-08-27T08:47:22.805Z,97.60
2018-08-27T08:49:50.919Z,97.60
2018-08-27T08:52:19.066Z,97.80
2018-08-27T08:54:47.321Z,98.60
2018-08-27T08:57:15.440Z,97.60
2018-08-27T08:59:43.579Z,97.50
2018-08-27T09:02:11.737Z,96.80
2018-08-27T09:04:39.848Z,96.70
2018-08-27T09:07:07.982Z,97.10
2018-08-27T09:09:36.075Z,97.50
2018-08-27T09:12:04.169Z,97.60
2018-08-27T09:14:32.542Z,97.80
2018-08-27T09:17:00.741Z,97.70
2018-08-27T09:19:28.803Z,96.70
2018-08-27T09:21:56.958Z,96.70
2018-08-27T09:24:25.178Z,96.90
2018-08-27T09:26:53.307Z,98.30
2018-08-27T09:29:21.469Z,98.10
2018-08-27T09:31:49.555Z,98.00
2018-08-27T09:34:17.697Z,98.20
2018-08-27T09:36:45.802Z,99.00
2018-08-27T09:39:13.921Z,98.90
2018-08-27T09:41:42.139Z,99.50
2018-08-27T09:44:10.204Z,98.90
2018-08-27T09:46:38.348Z,98.70
2018-08-27T09:49:06.447Z,97.90
2018-08-27T09:51:34.583Z,97.40
2018-08-27T09:54:02.716Z,96.80
2018-08-27T09:56:30.792Z,96.20
2018-08-27T09:58:58.930Z,96.70
2018-08-27T10:01:33.196Z,95.50
2018-08-27T10:04:01.363Z,94.60
2018-08-27T10:06:29.453Z,94.40
2018-08-27T10:08:57.609Z,92.60
2018-08-27T10:11:25.893Z,91.70
2018-08-27T10:13:54.039Z,91.00
2018-08-27T10:16:22.236Z,91.70
2018-08-27T10:18:50.341Z,92.40
2018-08-27T10:21:18.480Z,92.10
2018-08-27T10:23:46.653Z,93.80
2018-08-27T10:26:14.832Z,93.50
2018-08-27T10:28:42.963Z,93.40
2018-08-27T10:31:11.068Z,92.80
2018-08-27T10:33:39.208Z,92.80
2018-08-27T10:36:07.347Z,92.80
2018-08-27T10:38:36.216Z,92.40
2018-08-27T10:41:04.344Z,92.40
2018-08-27T10:43:32.461Z,93.30
2018-08-27T10:46:00.564Z,93.90
2018-08-27T10:48:28.694Z,93.30
2018-08-27T10:50:56.847Z,92.60
2018-08-27T10:53:24.971Z,92.30
2018-08-27T10:55:53.131Z,92.70
2018-08-27T10:58:21.369Z,93.00
2018-08-27T11:00:49.456Z,92.00
2018-08-27T11:03:17.651Z,91.30
2018-08-27T11:05:45.783Z,91.30
2018-08-27T11:08:13.911Z,91.30
2018-08-27T11:10:42.115Z,91.30
2018-08-27T11:13:10.244Z,91.70
2018-08-27T11:15:38.416Z,91.40
2018-08-27T11:18:06.990Z,92.20
2018-08-27T11:20:35.360Z,92.30
2018-08-27T11:23:03.288Z,93.10
2018-08-27T11:25:31.438Z,93.60
2018-08-27T11:27:59.666Z,93.90
2018-08-27T11:30:27.908Z,92.50
2018-08-27T11:32:56.163Z,92.30
2018-08-27T11:35:24.253Z,91.90
2018-08-27T11:37:52.388Z,91.90
2018-08-27T11:40:20.543Z,92.50
2018-08-27T11:42:48.671Z,91.80
2018-08-27T11:45:16.768Z,89.90
2018-08-27T11:47:44.895Z,81.50
2018-08-27T11:50:13.095Z,75.50
2018-08-27T11:52:41.238Z,72.90
2018-08-27T11:55:10.093Z,71.80
2018-08-27T11:57:38.158Z,71.10
2018-08-27T12:00:07.662Z,71.50
2018-08-27T12:02:36.312Z,66.50
2018-08-27T12:05:04.525Z,71.70
2018-08-27T12:07:32.643Z,70.70
2018-08-27T12:10:00.770Z,66.90
2018-08-27T12:12:28.853Z,63.60
2018-08-27T12:14:56.942Z,68.40
2018-08-27T12:17:25.087Z,67.30
2018-08-27T12:19:53.198Z,67.50
2018-08-27T12:22:21.319Z,63.70
2018-08-27T12:24:49.433Z,61.50
2018-08-27T12:27:17.528Z,61.90
2018-08-27T12:29:45.640Z,63.50
2018-08-27T12:32:13.736Z,56.50
2018-08-27T12:34:41.844Z,52.80
2018-08-27T12:37:10.178Z,48.20
2018-08-27T12:39:38.296Z,47.20
2018-08-27T12:42:06.388Z,47.10
2018-08-27T12:44:34.561Z,47.20
2018-08-27T12:47:02.658Z,46.60
2018-08-27T12:49:30.796Z,48.50
2018-08-27T12:51:58.912Z,48.80
2018-08-27T12:54:27.665Z,47.70
2018-08-27T12:56:55.752Z,47.60
2018-08-27T12:59:23.867Z,48.30
2018-08-27T13:01:51.962Z,47.50
2018-08-27T13:04:20.233Z,47.00
2018-08-27T13:06:48.333Z,46.60
2018-08-27T13:09:16.451Z,45.30
2018-08-27T13:11:44.546Z,45.50
2018-08-27T13:14:12.649Z,46.10
2018-08-27T13:16:40.820Z,47.60
2018-08-27T13:19:08.928Z,49.10
2018-08-27T13:21:37.034Z,48.30
2018-08-27T13:24:05.156Z,47.00
2018-08-27T13:26:33.272Z,44.70
2018-08-27T13:29:01.507Z,44.30
2018-08-27T13:31:30.591Z,44.40
2018-08-27T13:33:58.569Z,44.70
2018-08-27T13:36:27.430Z,45.50
2018-08-27T13:38:55.628Z,43.90
2018-08-27T13:41:23.758Z,44.30
2018-08-27T13:43:51.897Z,43.60
2018-08-27T13:46:20.032Z,41.80
2018-08-27T13:48:48.178Z,41.50
2018-08-27T13:51:16.253Z,42.40
2018-08-27T13:53:44.356Z,42.90
2018-08-27T13:56:12.496Z,44.00
2018-08-27T13:58:40.598Z,44.50
2018-08-27T14:01:08.700Z,42.90
2018-08-27T14:03:36.795Z,43.20
2018-08-27T14:06:04.914Z,44.10
2018-08-27T14:08:35.878Z,44.50
2018-08-27T14:11:03.967Z,45.00
2018-08-27T14:13:32.818Z,41.40
2018-08-27T14:16:00.936Z,40.90
2018-08-27T14:18:29.050Z,41.30
2018-08-27T14:24:28.230Z,41.30
2018-08-27T14:26:56.355Z,41.20
2018-08-27T14:29:24.660Z,42.30
2018-08-27T14:31:52.790Z,42.80
2018-08-27T14:34:21.723Z,43.90
2018-08-27T14:36:49.828Z,42.50
2018-08-27T14:39:18.044Z,43.50
2018-08-27T14:41:46.184Z,44.20
2018-08-27T14:44:14.340Z,44.50
2018-08-27T14:46:42.476Z,43.80
2018-08-27T14:49:10.596Z,45.50
2018-08-27T14:51:38.751Z,43.60
2018-08-27T14:54:06.877Z,44.60
2018-08-27T14:56:34.967Z,45.60
2018-08-27T14:59:03.100Z,45.50
2018-08-27T15:01:31.197Z,45.70
2018-08-27T15:03:59.324Z,45.80
2018-08-27T15:06:27.436Z,46.90
2018-08-27T15:08:55.545Z,47.40
2018-08-27T15:11:23.662Z,48.80
2018-08-27T15:13:51.783Z,49.20
2018-08-27T15:16:19.940Z,49.70
2018-08-27T15:18:48.002Z,49.90
2018-08-27T15:21:16.727Z,49.60
2018-08-27T15:23:44.852Z,50.20
2018-08-27T15:26:12.972Z,50.70
2018-08-27T15:28:41.084Z,50.40
2018-08-27T15:31:09.251Z,49.80
2018-08-27T15:33:37.341Z,50.70
2018-08-27T15:36:05.438Z,50.90
2018-08-27T15:38:33.627Z,50.20
2018-08-27T15:43:29.573Z,51.20
2018-08-27T15:46:03.076Z,51.20
2018-08-27T15:48:31.170Z,51.80
2018-08-27T15:50:59.361Z,51.90
2018-08-27T15:53:27.410Z,50.90
2018-08-27T15:55:55.547Z,51.30
2018-08-27T15:58:23.747Z,51.20
2018-08-27T16:00:51.860Z,50.50
2018-08-27T16:03:19.978Z,51.50
2018-08-27T16:05:48.273Z,51.50
2018-08-27T16:08:16.307Z,52.20
2018-08-27T16:10:44.380Z,52.40
2018-08-27T16:13:12.512Z,52.00
2018-08-27T16:15:40.626Z,50.90
2018-08-27T16:18:08.781Z,51.00
2018-08-27T16:20:36.891Z,51.00
2018-08-27T16:23:05.059Z,52.10
2018-08-27T16:25:33.246Z,52.00
2018-08-27T16:28:01.285Z,52.60
2018-08-27T16:30:29.416Z,52.90
2018-08-27T16:32:57.555Z,52.60
2018-08-27T16:35:25.652Z,53.30
2018-08-27T16:37:53.804Z,53.80
2018-08-27T16:40:21.934Z,53.20
2018-08-27T16:42:50.075Z,52.50
2018-08-27T16:45:18.222Z,53.10
2018-08-27T16:47:46.372Z,52.40
2018-08-27T16:50:14.527Z,52.50
2018-08-27T16:52:42.653Z,53.20
2018-08-27T16:55:10.768Z,53.00
2018-08-27T16:57:38.933Z,53.80
2018-08-27T17:00:09.540Z,55.40
2018-08-27T17:02:37.696Z,54.50
2018-08-27T17:05:05.829Z,54.20
2018-08-27T17:07:34.047Z,54.00
2018-08-27T17:10:02.280Z,54.20
2018-08-27T17:14:58.208Z,54.10
2018-08-27T17:17:26.375Z,54.40
2018-08-27T17:19:54.521Z,55.30
2018-08-27T17:22:22.660Z,55.60
2018-08-27T17:24:51.435Z,55.90
2018-08-27T17:27:19.709Z,56.60
2018-08-27T17:29:47.784Z,56.80
2018-08-27T17:32:16.156Z,57.10
2018-08-27T17:34:44.292Z,57.70
2018-08-27T17:37:12.468Z,57.20
2018-08-27T17:39:40.607Z,57.50
2018-08-27T17:42:08.764Z,58.20
2018-08-27T17:44:37.102Z,58.70
2018-08-27T17:47:05.424Z,58.20
2018-08-27T17:49:34.609Z,57.90
2018-08-27T17:52:02.906Z,58.50
2018-08-27T17:54:31.124Z,59.10
2018-08-27T17:56:59.259Z,58.50
2018-08-27T17:59:27.506Z,59.20
2018-08-27T18:01:55.637Z,59.30
2018-08-27T18:04:23.812Z,59.20
2018-08-27T18:06:51.949Z,59.50
2018-08-27T18:09:20.117Z,59.30
2018-08-27T18:11:48.287Z,58.60
2018-08-27T18:14:16.436Z,60.30
2018-08-27T18:16:44.619Z,60.90
2018-08-27T18:19:12.808Z,60.10
2018-08-27T18:21:40.940Z,59.30
2018-08-27T18:24:09.129Z,59.60
2018-08-27T18:26:37.271Z,60.30
2018-08-27T18:29:05.447Z,60.20
2018-08-27T18:31:33.759Z,60.50
2018-08-27T18:34:01.900Z,60.70
2018-08-27T18:36:30.783Z,60.60
2018-08-27T18:38:58.911Z,63.20
2018-08-27T18:41:27.022Z,64.40
2018-08-27T18:43:55.159Z,65.10
2018-08-27T18:46:23.280Z,64.30
2018-08-27T18:48:51.891Z,64.80
2018-08-27T18:51:20.039Z,64.80
2018-08-27T18:53:48.160Z,66.30
2018-08-27T18:56:16.290Z,65.60
2018-08-27T18:58:44.468Z,64.10
2018-08-27T19:01:12.618Z,64.50
2018-08-27T19:03:40.760Z,64.70
2018-08-27T19:06:08.882Z,65.30
2018-08-27T19:08:37.293Z,67.10
2018-08-27T19:11:05.530Z,67.00
2018-08-27T19:13:33.614Z,66.50
2018-08-27T19:16:01.733Z,67.20
2018-08-27T19:18:29.908Z,67.50
2018-08-27T19:20:58.038Z,66.40
2018-08-27T19:23:26.264Z,64.90
2018-08-27T19:28:22.236Z,67.30
2018-08-27T19:30:50.400Z,66.30
2018-08-27T19:33:18.520Z,67.20
2018-08-27T19:35:46.780Z,67.60
2018-08-27T19:38:14.842Z,66.50
2018-08-27T19:40:43.032Z,66.50
2018-08-27T19:43:11.238Z,65.90
2018-08-27T19:45:39.300Z,65.10
2018-08-27T19:48:07.405Z,65.20
2018-08-27T19:50:35.527Z,66.50
2018-08-27T19:53:03.618Z,65.70
2018-08-27T19:55:31.733Z,65.40
2018-08-27T19:57:59.837Z,66.00
2018-08-27T20:00:27.939Z,64.90
2018-08-27T20:02:56.046Z,65.60
2018-08-27T20:05:24.166Z,65.20
2018-08-27T20:07:52.272Z,64.30
2018-08-27T20:10:20.380Z,63.00
2018-08-27T20:12:48.502Z,64.10
2018-08-27T20:15:16.632Z,65.00
2018-08-27T20:17:44.744Z,66.70
2018-08-27T20:20:13.012Z,67.30
2018-08-27T20:22:41.160Z,66.20
2018-08-27T20:25:09.383Z,64.60
2018-08-27T20:27:37.490Z,65.80
2018-08-27T20:30:05.627Z,66.70
2018-08-27T20:32:33.775Z,65.90
2018-08-27T20:35:01.987Z,65.60
2018-08-27T20:37:30.085Z,66.40
2018-08-27T20:39:58.224Z,67.90
2018-08-27T20:42:26.332Z,69.70
2018-08-27T20:44:55.538Z,70.50
2018-08-27T20:47:23.678Z,72.60
2018-08-27T20:49:51.777Z,72.50
2018-08-27T20:52:19.931Z,73.60
2018-08-27T20:54:48.162Z,73.80
2018-08-27T20:57:16.356Z,73.60
2018-08-27T20:59:44.451Z,72.20
2018-08-27T21:02:12.593Z,73.30
2018-08-27T21:04:40.756Z,75.30
2018-08-27T21:07:08.999Z,74.10
2018-08-27T21:09:37.594Z,73.80
2018-08-27T21:12:06.072Z,73.10
2018-08-27T21:14:44.212Z,73.10
2018-08-27T21:17:12.362Z,72.50
2018-08-27T21:19:40.565Z,73.40
2018-08-27T21:22:08.692Z,73.10
2018-08-27T21:24:37.513Z,72.00
2018-08-27T21:27:05.783Z,73.40
2018-08-27T21:29:33.911Z,73.40
2018-08-27T21:32:02.029Z,72.60
2018-08-27T21:34:30.284Z,72.90
2018-08-27T21:36:58.440Z,73.80
2018-08-27T21:39:26.579Z,73.70
2018-08-27T21:41:54.814Z,72.40
2018-08-27T21:44:22.975Z,72.60
2018-08-27T21:46:51.203Z,72.00
2018-08-27T21:49:19.561Z,71.10
2018-08-27T21:51:47.725Z,71.10
2018-08-27T21:54:15.923Z,72.10
2018-08-27T21:56:44.074Z,72.80
2018-08-27T21:59:12.232Z,73.30
2018-08-27T22:01:40.493Z,72.50
2018-08-27T22:04:12.316Z,72.90
2018-08-27T22:06:41.775Z,73.70
2018-08-27T22:09:09.961Z,74.00
2018-08-27T22:11:38.053Z,74.10
2018-08-27T22:14:06.167Z,74.90
2018-08-27T22:16:34.462Z,74.50
2018-08-27T22:19:03.254Z,74.40
2018-08-27T22:21:31.324Z,74.60
2018-08-27T22:24:00.028Z,74.10
2018-08-27T22:26:28.128Z,75.20
2018-08-27T22:28:56.223Z,74.10
2018-08-27T22:31:24.328Z,74.10
2018-08-27T22:33:52.408Z,73.80
2018-08-27T22:36:20.459Z,74.00
2018-08-27T22:38:48.586Z,74.80
2018-08-27T22:41:16.618Z,74.80
2018-08-27T22:43:44.683Z,74.60
2018-08-27T22:46:12.779Z,75.10
2018-08-27T22:48:40.854Z,76.10
2018-08-27T22:51:08.944Z,76.40
2018-08-27T22:53:37.696Z,76.30
2018-08-27T22:56:06.336Z,76.10
2018-08-27T22:58:34.530Z,76.80
2018-08-27T23:01:02.627Z,75.80
2018-08-27T23:03:36.129Z,75.90
2018-08-27T23:06:04.224Z,75.70
2018-08-27T23:08:32.292Z,76.40
2018-08-27T23:11:00.405Z,76.60
2018-08-27T23:13:28.485Z,76.00
2018-08-27T23:15:56.556Z,76.30
2018-08-27T23:18:24.644Z,76.90
2018-08-27T23:20:52.746Z,76.50
2018-08-27T23:23:20.820Z,77.20
2018-08-27T23:25:48.920Z,77.10
2018-08-27T23:28:17.152Z,77.10
2018-08-27T23:30:45.254Z,77.50
2018-08-27T23:33:13.923Z,77.20
2018-08-27T23:35:41.989Z,77.20
2018-08-27T23:38:10.090Z,78.10
2018-08-27T23:40:38.219Z,78.80
2018-08-27T23:43:06.374Z,79.30
2018-08-27T23:45:34.491Z,79.60
2018-08-27T23:48:02.628Z,78.90
2018-08-27T23:50:30.773Z,78.70
2018-08-27T23:52:58.899Z,80.10
2018-08-27T23:55:27.027Z,80.00
2018-08-27T23:57:55.252Z,80.20
